sensor_id;sensor_type;location;lat;lon;timestamp;pressure;altitude;pressure_sealevel;temperature;humidity
69667;BME280;66534;52.370;4.832;2023-06-05T00:00:25;102437.47;;;12.43;100.00
69667;BME280;66534;52.370;4.832;2023-06-05T00:00:56;102428.84;;;12.38;100.00
69667;BME280;66534;52.370;4.832;2023-06-05T00:01:26;102434.59;;;12.52;100.00
69667;BME280;66534;52.370;4.832;2023-06-05T00:01:57;102431.94;;;12.52;100.00
69667;BME280;66534;52.370;4.832;2023-06-05T00:02:27;102437.63;;;12.37;100.00
69667;BME280;66534;52.370;4.832;2023-06-05T00:02:58;102434.13;;;12.36;100.00
69667;BME280;66534;52.370;4.832;2023-06-05T00:03:29;102435.09;;;12.32;100.00
69667;BME280;66534;52.370;4.832;2023-06-05T00:03:59;102438.66;;;12.31;100.00
69667;BME280;66534;52.370;4.832;2023-06-05T00:04:30;102429.69;;;12.38;100.00
69667;BME280;66534;52.370;4.832;2023-06-05T00:05:00;102427.25;;;12.63;100.00
69667;BME280;66534;52.370;4.832;2023-06-05T00:05:31;102425.56;;;12.61;100.00
69667;BME280;66534;52.370;4.832;2023-06-05T00:06:02;102431.66;;;12.63;100.00
69667;BME280;66534;52.370;4.832;2023-06-05T00:06:32;102425.16;;;12.76;100.00
69667;BME280;66534;52.370;4.832;2023-06-05T00:07:03;102425.28;;;12.71;100.00
69667;BME280;66534;52.370;4.832;2023-06-05T00:07:34;102422.84;;;12.64;100.00
69667;BME280;66534;52.370;4.832;2023-06-05T00:08:07;102428.94;;;12.66;100.00
69667;BME280;66534;52.370;4.832;2023-06-05T00:08:37;102424.44;;;12.69;100.00
69667;BME280;66534;52.370;4.832;2023-06-05T00:09:08;102421.78;;;12.71;100.00
69667;BME280;66534;52.370;4.832;2023-06-05T00:09:38;102425.81;;;12.52;100.00
69667;BME280;66534;52.370;4.832;2023-06-05T00:10:09;102424.31;;;12.43;100.00
69667;BME280;66534;52.370;4.832;2023-06-05T00:10:39;102425.00;;;12.50;100.00
69667;BME280;66534;52.370;4.832;2023-06-05T00:11:10;102431.34;;;12.42;100.00
69667;BME280;66534;52.370;4.832;2023-06-05T00:11:40;102425.94;;;12.47;100.00
69667;BME280;66534;52.370;4.832;2023-06-05T00:12:11;102423.44;;;12.42;100.00
69667;BME280;66534;52.370;4.832;2023-06-05T00:12:41;102431.25;;;12.45;100.00
69667;BME280;66534;52.370;4.832;2023-06-05T00:13:12;102423.34;;;12.45;100.00
69667;BME280;66534;52.370;4.832;2023-06-05T00:13:42;102436.88;;;12.32;100.00
69667;BME280;66534;52.370;4.832;2023-06-05T00:14:12;102428.44;;;12.19;100.00
69667;BME280;66534;52.370;4.832;2023-06-05T00:14:43;102435.53;;;12.15;100.00
69667;BME280;66534;52.370;4.832;2023-06-05T00:15:14;102431.16;;;12.16;100.00
69667;BME280;66534;52.370;4.832;2023-06-05T00:15:45;102429.22;;;12.23;100.00
69667;BME280;66534;52.370;4.832;2023-06-05T00:16:15;102430.16;;;12.21;100.00
69667;BME280;66534;52.370;4.832;2023-06-05T00:16:46;102436.41;;;12.16;100.00
69667;BME280;66534;52.370;4.832;2023-06-05T00:17:16;102438.91;;;12.22;100.00
69667;BME280;66534;52.370;4.832;2023-06-05T00:17:47;102433.63;;;12.22;100.00
69667;BME280;66534;52.370;4.832;2023-06-05T00:18:17;102432.97;;;12.14;100.00
69667;BME280;66534;52.370;4.832;2023-06-05T00:18:47;102439.16;;;12.11;100.00
69667;BME280;66534;52.370;4.832;2023-06-05T00:19:18;102432.19;;;12.10;100.00
69667;BME280;66534;52.370;4.832;2023-06-05T00:19:48;102426.91;;;12.10;100.00
69667;BME280;66534;52.370;4.832;2023-06-05T00:20:19;102432.03;;;12.16;100.00
69667;BME280;66534;52.370;4.832;2023-06-05T00:20:49;102431.00;;;12.22;100.00
69667;BME280;66534;52.370;4.832;2023-06-05T00:21:20;102437.84;;;12.29;100.00
69667;BME280;66534;52.370;4.832;2023-06-05T00:21:50;102435.22;;;12.28;100.00
69667;BME280;66534;52.370;4.832;2023-06-05T00:22:22;102430.69;;;12.34;100.00
69667;BME280;66534;52.370;4.832;2023-06-05T00:22:53;102433.25;;;12.36;100.00
69667;BME280;66534;52.370;4.832;2023-06-05T00:23:24;102423.91;;;12.24;100.00
69667;BME280;66534;52.370;4.832;2023-06-05T00:23:55;102435.16;;;12.31;100.00
69667;BME280;66534;52.370;4.832;2023-06-05T00:24:25;102427.53;;;12.20;100.00
69667;BME280;66534;52.370;4.832;2023-06-05T00:24:56;102425.13;;;12.12;100.00
69667;BME280;66534;52.370;4.832;2023-06-05T00:25:26;102423.53;;;12.05;100.00
69667;BME280;66534;52.370;4.832;2023-06-05T00:25:57;102426.97;;;12.09;100.00
69667;BME280;66534;52.370;4.832;2023-06-05T00:26:28;102419.06;;;12.09;100.00
69667;BME280;66534;52.370;4.832;2023-06-05T00:26:58;102420.88;;;12.07;100.00
69667;BME280;66534;52.370;4.832;2023-06-05T00:27:28;102432.38;;;12.03;100.00
69667;BME280;66534;52.370;4.832;2023-06-05T00:27:59;102427.16;;;12.00;100.00
69667;BME280;66534;52.370;4.832;2023-06-05T00:28:29;102428.06;;;12.00;100.00
69667;BME280;66534;52.370;4.832;2023-06-05T00:29:00;102421.03;;;12.01;100.00
69667;BME280;66534;52.370;4.832;2023-06-05T00:29:31;102427.94;;;12.05;100.00
69667;BME280;66534;52.370;4.832;2023-06-05T00:30:01;102422.63;;;12.06;100.00
69667;BME280;66534;52.370;4.832;2023-06-05T00:30:32;102422.59;;;12.08;100.00
69667;BME280;66534;52.370;4.832;2023-06-05T00:31:02;102435.00;;;12.03;100.00
69667;BME280;66534;52.370;4.832;2023-06-05T00:31:33;102422.94;;;11.94;100.00
69667;BME280;66534;52.370;4.832;2023-06-05T00:32:03;102426.38;;;11.98;100.00
69667;BME280;66534;52.370;4.832;2023-06-05T00:32:34;102417.66;;;11.95;100.00
69667;BME280;66534;52.370;4.832;2023-06-05T00:33:05;102419.44;;;11.93;100.00
69667;BME280;66534;52.370;4.832;2023-06-05T00:33:35;102424.59;;;11.98;100.00
69667;BME280;66534;52.370;4.832;2023-06-05T00:34:06;102425.44;;;12.00;100.00
69667;BME280;66534;52.370;4.832;2023-06-05T00:34:36;102421.78;;;12.06;100.00
69667;BME280;66534;52.370;4.832;2023-06-05T00:35:06;102415.72;;;12.02;100.00
69667;BME280;66534;52.370;4.832;2023-06-05T00:35:38;102417.88;;;12.20;100.00
69667;BME280;66534;52.370;4.832;2023-06-05T00:36:09;102422.13;;;12.26;100.00
69667;BME280;66534;52.370;4.832;2023-06-05T00:36:39;102423.78;;;12.29;100.00
69667;BME280;66534;52.370;4.832;2023-06-05T00:37:10;102424.84;;;12.23;100.00
69667;BME280;66534;52.370;4.832;2023-06-05T00:37:43;102417.25;;;12.11;100.00
69667;BME280;66534;52.370;4.832;2023-06-05T00:38:16;102420.44;;;12.24;100.00
69667;BME280;66534;52.370;4.832;2023-06-05T00:38:47;102418.91;;;12.15;100.00
69667;BME280;66534;52.370;4.832;2023-06-05T00:39:17;102418.22;;;12.07;100.00
69667;BME280;66534;52.370;4.832;2023-06-05T00:39:50;102424.22;;;12.12;100.00
69667;BME280;66534;52.370;4.832;2023-06-05T00:40:21;102426.88;;;12.12;100.00
69667;BME280;66534;52.370;4.832;2023-06-05T00:40:51;102421.66;;;12.10;100.00
69667;BME280;66534;52.370;4.832;2023-06-05T00:41:22;102419.09;;;12.07;100.00
69667;BME280;66534;52.370;4.832;2023-06-05T00:41:52;102422.50;;;12.12;100.00
69667;BME280;66534;52.370;4.832;2023-06-05T00:42:23;102430.47;;;12.08;100.00
69667;BME280;66534;52.370;4.832;2023-06-05T00:42:53;102422.50;;;12.11;100.00
69667;BME280;66534;52.370;4.832;2023-06-05T00:43:24;102422.56;;;12.09;100.00
69667;BME280;66534;52.370;4.832;2023-06-05T00:43:54;102414.56;;;12.14;100.00
69667;BME280;66534;52.370;4.832;2023-06-05T00:44:24;102420.50;;;12.20;100.00
69667;BME280;66534;52.370;4.832;2023-06-05T00:44:55;102422.72;;;12.37;100.00
69667;BME280;66534;52.370;4.832;2023-06-05T00:45:25;102413.72;;;12.44;100.00
69667;BME280;66534;52.370;4.832;2023-06-05T00:45:59;102424.59;;;12.32;100.00
69667;BME280;66534;52.370;4.832;2023-06-05T00:46:33;102415.56;;;12.41;100.00
69667;BME280;66534;52.370;4.832;2023-06-05T00:47:04;102416.44;;;12.41;100.00
69667;BME280;66534;52.370;4.832;2023-06-05T00:47:35;102417.84;;;12.22;100.00
69667;BME280;66534;52.370;4.832;2023-06-05T00:48:06;102416.78;;;12.29;100.00
69667;BME280;66534;52.370;4.832;2023-06-05T00:48:37;102419.56;;;12.23;100.00
69667;BME280;66534;52.370;4.832;2023-06-05T00:49:08;102416.28;;;12.15;100.00
69667;BME280;66534;52.370;4.832;2023-06-05T00:49:39;102419.75;;;12.17;100.00
69667;BME280;66534;52.370;4.832;2023-06-05T00:50:10;102427.50;;;12.21;100.00
69667;BME280;66534;52.370;4.832;2023-06-05T00:50:44;102412.66;;;12.19;100.00
69667;BME280;66534;52.370;4.832;2023-06-05T00:51:15;102416.16;;;12.19;100.00
69667;BME280;66534;52.370;4.832;2023-06-05T00:51:46;102417.31;;;12.08;100.00
69667;BME280;66534;52.370;4.832;2023-06-05T00:52:17;102418.00;;;12.16;100.00
69667;BME280;66534;52.370;4.832;2023-06-05T00:52:48;102416.19;;;12.18;100.00
69667;BME280;66534;52.370;4.832;2023-06-05T00:53:19;102417.38;;;12.06;100.00
69667;BME280;66534;52.370;4.832;2023-06-05T00:53:51;102412.78;;;12.14;100.00
69667;BME280;66534;52.370;4.832;2023-06-05T00:54:22;102415.22;;;12.20;100.00
69667;BME280;66534;52.370;4.832;2023-06-05T00:54:53;102418.00;;;12.16;100.00
69667;BME280;66534;52.370;4.832;2023-06-05T00:55:24;102419.63;;;12.21;100.00
69667;BME280;66534;52.370;4.832;2023-06-05T00:55:56;102414.19;;;12.28;100.00
69667;BME280;66534;52.370;4.832;2023-06-05T00:56:27;102417.72;;;12.27;100.00
69667;BME280;66534;52.370;4.832;2023-06-05T00:56:57;102419.44;;;12.28;100.00
69667;BME280;66534;52.370;4.832;2023-06-05T00:57:28;102418.50;;;12.30;100.00
69667;BME280;66534;52.370;4.832;2023-06-05T00:58:02;102422.06;;;12.28;100.00
69667;BME280;66534;52.370;4.832;2023-06-05T00:58:33;102418.50;;;12.30;100.00
69667;BME280;66534;52.370;4.832;2023-06-05T00:59:03;102425.56;;;12.28;100.00
69667;BME280;66534;52.370;4.832;2023-06-05T00:59:34;102421.22;;;12.27;100.00
69667;BME280;66534;52.370;4.832;2023-06-05T01:00:07;102423.69;;;12.33;100.00
69667;BME280;66534;52.370;4.832;2023-06-05T01:00:38;102417.66;;;12.30;100.00
69667;BME280;66534;52.370;4.832;2023-06-05T01:01:09;102421.94;;;12.32;100.00
69667;BME280;66534;52.370;4.832;2023-06-05T01:01:41;102420.56;;;12.19;100.00
69667;BME280;66534;52.370;4.832;2023-06-05T01:02:12;102421.81;;;12.38;100.00
69667;BME280;66534;52.370;4.832;2023-06-05T01:02:43;102414.56;;;12.46;100.00
69667;BME280;66534;52.370;4.832;2023-06-05T01:03:13;102420.16;;;12.34;100.00
69667;BME280;66534;52.370;4.832;2023-06-05T01:03:44;102422.16;;;12.25;100.00
69667;BME280;66534;52.370;4.832;2023-06-05T01:04:15;102422.91;;;12.30;100.00
69667;BME280;66534;52.370;4.832;2023-06-05T01:04:45;102419.00;;;12.44;100.00
69667;BME280;66534;52.370;4.832;2023-06-05T01:05:16;102418.88;;;12.49;100.00
69667;BME280;66534;52.370;4.832;2023-06-05T01:05:47;102419.44;;;12.28;100.00
69667;BME280;66534;52.370;4.832;2023-06-05T01:06:18;102417.22;;;12.12;100.00
69667;BME280;66534;52.370;4.832;2023-06-05T01:06:49;102420.44;;;12.24;100.00
69667;BME280;66534;52.370;4.832;2023-06-05T01:07:21;102417.13;;;12.15;100.00
69667;BME280;66534;52.370;4.832;2023-06-05T01:07:52;102418.91;;;12.15;100.00
69667;BME280;66534;52.370;4.832;2023-06-05T01:08:23;102425.97;;;12.13;100.00
69667;BME280;66534;52.370;4.832;2023-06-05T01:08:55;102414.78;;;12.05;100.00
69667;BME280;66534;52.370;4.832;2023-06-05T01:09:26;102419.94;;;12.09;100.00
69667;BME280;66534;52.370;4.832;2023-06-05T01:09:57;102423.53;;;12.05;100.00
69667;BME280;66534;52.370;4.832;2023-06-05T01:10:28;102421.06;;;11.99;100.00
69667;BME280;66534;52.370;4.832;2023-06-05T01:10:58;102426.16;;;12.05;100.00
69667;BME280;66534;52.370;4.832;2023-06-05T01:12:20;102418.22;;;12.07;100.00
69667;BME280;66534;52.370;4.832;2023-06-05T01:13:30;102421.81;;;12.04;100.00
69667;BME280;66534;52.370;4.832;2023-06-05T01:14:15;102416.63;;;12.01;100.00
69667;BME280;66534;52.370;4.832;2023-06-05T01:14:52;102417.31;;;12.08;100.00
69667;BME280;66534;52.370;4.832;2023-06-05T01:15:29;102413.69;;;12.13;100.00
69667;BME280;66534;52.370;4.832;2023-06-05T01:15:59;102422.38;;;12.15;100.00
69667;BME280;66534;52.370;4.832;2023-06-05T01:16:34;102411.97;;;12.12;100.00
69667;BME280;66534;52.370;4.832;2023-06-05T01:17:07;102417.31;;;12.08;100.00
69667;BME280;66534;52.370;4.832;2023-06-05T01:17:38;102417.38;;;12.06;100.00
69667;BME280;66534;52.370;4.832;2023-06-05T01:18:09;102413.16;;;12.01;100.00
69667;BME280;66534;52.370;4.832;2023-06-05T01:18:40;102410.47;;;12.02;100.00
69667;BME280;66534;52.370;4.832;2023-06-05T01:19:15;102412.28;;;12.00;100.00
69667;BME280;66534;52.370;4.832;2023-06-05T01:19:46;102413.88;;;12.06;100.00
69667;BME280;66534;52.370;4.832;2023-06-05T01:20:19;102405.13;;;12.05;100.00
69667;BME280;66534;52.370;4.832;2023-06-05T01:20:50;102409.38;;;12.11;100.00
69667;BME280;66534;52.370;4.832;2023-06-05T01:21:22;102413.53;;;12.19;100.00
69667;BME280;66534;52.370;4.832;2023-06-05T01:21:52;102409.03;;;12.23;100.00
69667;BME280;66534;52.370;4.832;2023-06-05T01:22:25;102407.34;;;12.20;100.00
69667;BME280;66534;52.370;4.832;2023-06-05T01:22:56;102398.38;;;12.28;100.00
69667;BME280;66534;52.370;4.832;2023-06-05T01:23:27;102403.63;;;12.29;100.00
69667;BME280;66534;52.370;4.832;2023-06-05T01:23:59;102397.41;;;12.32;100.00
69667;BME280;66534;52.370;4.832;2023-06-05T01:24:29;102399.19;;;12.31;100.00
69667;BME280;66534;52.370;4.832;2023-06-05T01:25:00;102398.25;;;12.32;100.00
69667;BME280;66534;52.370;4.832;2023-06-05T01:25:31;102394.53;;;12.41;100.00
69667;BME280;66534;52.370;4.832;2023-06-05T01:26:16;102401.56;;;12.40;100.00
69667;BME280;66534;52.370;4.832;2023-06-05T01:28:07;102398.31;;;12.31;100.00
69667;BME280;66534;52.370;4.832;2023-06-05T01:28:44;102399.44;;;12.20;100.00
69667;BME280;66534;52.370;4.832;2023-06-05T01:29:23;102403.84;;;12.21;100.00
69667;BME280;66534;52.370;4.832;2023-06-05T01:31:31;102399.38;;;12.24;100.00
69667;BME280;66534;52.370;4.832;2023-06-05T01:32:09;102404.72;;;12.20;100.00
69667;BME280;66534;52.370;4.832;2023-06-05T01:32:56;102397.72;;;12.21;100.00
69667;BME280;66534;52.370;4.832;2023-06-05T01:33:32;102402.22;;;12.16;100.00
69667;BME280;66534;52.370;4.832;2023-06-05T01:34:14;102408.38;;;12.15;100.00
69667;BME280;66534;52.370;4.832;2023-06-05T01:34:49;102403.78;;;12.23;100.00
69667;BME280;66534;52.370;4.832;2023-06-05T01:35:23;102401.03;;;12.28;100.00
69667;BME280;66534;52.370;4.832;2023-06-05T01:35:58;102392.94;;;12.35;100.00
69667;BME280;66534;52.370;4.832;2023-06-05T01:36:34;102402.13;;;12.19;100.00
69667;BME280;66534;52.370;4.832;2023-06-05T01:37:07;102398.81;;;12.12;100.00
69667;BME280;66534;52.370;4.832;2023-06-05T01:37:39;102403.16;;;12.13;100.00
69667;BME280;66534;52.370;4.832;2023-06-05T01:38:11;102403.72;;;11.92;100.00
69667;BME280;66534;52.370;4.832;2023-06-05T01:38:42;102402.69;;;11.98;100.00
69667;BME280;66534;52.370;4.832;2023-06-05T01:39:14;102392.78;;;12.09;100.00
69667;BME280;66534;52.370;4.832;2023-06-05T01:39:45;102398.81;;;12.12;100.00
69667;BME280;66534;52.370;4.832;2023-06-05T01:40:19;102399.81;;;12.08;100.00
69667;BME280;66534;52.370;4.832;2023-06-05T01:40:51;102401.28;;;12.18;100.00
69667;BME280;66534;52.370;4.832;2023-06-05T01:41:22;102401.22;;;12.20;100.00
69667;BME280;66534;52.370;4.832;2023-06-05T01:41:55;102396.41;;;12.36;100.00
69667;BME280;66534;52.370;4.832;2023-06-05T01:42:27;102397.13;;;12.42;100.00
69667;BME280;66534;52.370;4.832;2023-06-05T01:42:59;102394.69;;;12.35;100.00
69667;BME280;66534;52.370;4.832;2023-06-05T01:43:32;102396.75;;;12.24;100.00
69667;BME280;66534;52.370;4.832;2023-06-05T01:44:04;102387.00;;;12.27;100.00
69667;BME280;66534;52.370;4.832;2023-06-05T01:44:38;102399.31;;;12.27;100.00
69667;BME280;66534;52.370;4.832;2023-06-05T01:45:10;102398.72;;;12.15;100.00
69667;BME280;66534;52.370;4.832;2023-06-05T01:45:41;102395.34;;;12.10;100.00
69667;BME280;66534;52.370;4.832;2023-06-05T01:46:14;102392.34;;;12.24;100.00
69667;BME280;66534;52.370;4.832;2023-06-05T01:46:48;102392.00;;;12.38;100.00
69667;BME280;66534;52.370;4.832;2023-06-05T01:47:19;102393.63;;;12.42;100.00
69667;BME280;66534;52.370;4.832;2023-06-05T01:47:51;102391.00;;;12.42;100.00
69667;BME280;66534;52.370;4.832;2023-06-05T01:48:23;102388.94;;;12.20;100.00
69667;BME280;66534;52.370;4.832;2023-06-05T01:48:57;102400.34;;;12.21;100.00
69667;BME280;66534;52.370;4.832;2023-06-05T01:49:31;102387.09;;;12.24;100.00
69667;BME280;66534;52.370;4.832;2023-06-05T01:50:01;102387.94;;;12.25;100.00
69667;BME280;66534;52.370;4.832;2023-06-05T01:50:35;102392.81;;;12.40;100.00
69667;BME280;66534;52.370;4.832;2023-06-05T01:51:07;102389.19;;;12.44;100.00
69667;BME280;66534;52.370;4.832;2023-06-05T01:51:38;102387.94;;;12.25;100.00
69667;BME280;66534;52.370;4.832;2023-06-05T01:52:08;102389.59;;;12.29;100.00
69667;BME280;66534;52.370;4.832;2023-06-05T01:52:39;102382.41;;;12.35;100.00
69667;BME280;66534;52.370;4.832;2023-06-05T01:53:11;102387.13;;;12.55;100.00
69667;BME280;66534;52.370;4.832;2023-06-05T01:53:42;102386.59;;;12.42;100.00
69667;BME280;66534;52.370;4.832;2023-06-05T01:54:12;102383.13;;;12.40;100.00
69667;BME280;66534;52.370;4.832;2023-06-05T01:54:45;102380.81;;;12.30;100.00
69667;BME280;66534;52.370;4.832;2023-06-05T01:55:19;102376.56;;;12.24;100.00
69667;BME280;66534;52.370;4.832;2023-06-05T01:55:54;102390.50;;;12.28;100.00
69667;BME280;66534;52.370;4.832;2023-06-05T01:56:27;102385.03;;;12.03;100.00
69667;BME280;66534;52.370;4.832;2023-06-05T01:57:00;102382.63;;;11.93;100.00
69667;BME280;66534;52.370;4.832;2023-06-05T01:57:30;102386.00;;;11.99;100.00
69667;BME280;66534;52.370;4.832;2023-06-05T01:58:03;102388.63;;;11.99;100.00
69667;BME280;66534;52.370;4.832;2023-06-05T01:58:34;102389.53;;;11.98;100.00
69667;BME280;66534;52.370;4.832;2023-06-05T01:59:05;102387.53;;;12.07;100.00
69667;BME280;66534;52.370;4.832;2023-06-05T01:59:36;102384.03;;;12.08;100.00
69667;BME280;66534;52.370;4.832;2023-06-05T02:00:07;102382.25;;;12.09;100.00
69667;BME280;66534;52.370;4.832;2023-06-05T02:00:42;102375.03;;;12.17;100.00
69667;BME280;66534;52.370;4.832;2023-06-05T02:01:15;102378.25;;;12.27;100.00
69667;BME280;66534;52.370;4.832;2023-06-05T02:01:49;102384.22;;;12.33;100.00
69667;BME280;66534;52.370;4.832;2023-06-05T02:02:19;102384.97;;;12.38;100.00
69667;BME280;66534;52.370;4.832;2023-06-05T02:02:53;102386.03;;;12.31;100.00
69667;BME280;66534;52.370;4.832;2023-06-05T02:03:24;102383.78;;;12.16;100.00
69667;BME280;66534;52.370;4.832;2023-06-05T02:03:55;102385.28;;;12.26;100.00
69667;BME280;66534;52.370;4.832;2023-06-05T02:04:27;102384.56;;;12.19;100.00
69667;BME280;66534;52.370;4.832;2023-06-05T02:04:59;102385.69;;;12.11;100.00
69667;BME280;66534;52.370;4.832;2023-06-05T02:05:29;102385.53;;;12.17;100.00
69667;BME280;66534;52.370;4.832;2023-06-05T02:06:00;102383.97;;;12.10;100.00
69667;BME280;66534;52.370;4.832;2023-06-05T02:06:33;102383.66;;;12.20;100.00
69667;BME280;66534;52.370;4.832;2023-06-05T02:07:16;102387.22;;;12.19;100.00
69667;BME280;66534;52.370;4.832;2023-06-05T02:07:47;102381.75;;;12.27;100.00
69667;BME280;66534;52.370;4.832;2023-06-05T02:08:23;102383.44;;;12.30;100.00
69667;BME280;66534;52.370;4.832;2023-06-05T02:08:55;102380.81;;;12.30;100.00
69667;BME280;66534;52.370;4.832;2023-06-05T02:09:25;102383.06;;;12.43;100.00
69667;BME280;66534;52.370;4.832;2023-06-05T02:09:55;102386.34;;;12.52;100.00
69667;BME280;66534;52.370;4.832;2023-06-05T02:10:32;102381.34;;;12.42;100.00
69667;BME280;66534;52.370;4.832;2023-06-05T02:11:03;102382.28;;;12.40;100.00
69667;BME280;66534;52.370;4.832;2023-06-05T02:11:40;102387.41;;;12.44;100.00
69667;BME280;66534;52.370;4.832;2023-06-05T02:12:12;102380.59;;;12.37;100.00
69667;BME280;66534;52.370;4.832;2023-06-05T02:12:45;102376.22;;;12.38;100.00
69667;BME280;66534;52.370;4.832;2023-06-05T02:13:16;102383.06;;;12.43;100.00
69667;BME280;66534;52.370;4.832;2023-06-05T02:13:49;102380.44;;;12.43;100.00
69667;BME280;66534;52.370;4.832;2023-06-05T02:14:22;102380.75;;;12.31;100.00
69667;BME280;66534;52.370;4.832;2023-06-05T02:14:54;102375.69;;;12.25;100.00
69667;BME280;66534;52.370;4.832;2023-06-05T02:15:27;102379.00;;;12.32;100.00
69667;BME280;66534;52.370;4.832;2023-06-05T02:16:01;102376.53;;;12.26;100.00
69667;BME280;66534;52.370;4.832;2023-06-05T02:16:32;102375.75;;;12.22;100.00
69667;BME280;66534;52.370;4.832;2023-06-05T02:17:04;102378.59;;;12.14;100.00
69667;BME280;66534;52.370;4.832;2023-06-05T02:17:36;102382.97;;;12.14;100.00
69667;BME280;66534;52.370;4.832;2023-06-05T02:18:06;102374.03;;;12.21;100.00
69667;BME280;66534;52.370;4.832;2023-06-05T02:18:37;102376.41;;;12.30;100.00
69667;BME280;66534;52.370;4.832;2023-06-05T02:19:08;102380.75;;;12.31;100.00
69667;BME280;66534;52.370;4.832;2023-06-05T02:19:41;102375.63;;;12.27;100.00
69667;BME280;66534;52.370;4.832;2023-06-05T02:20:11;102380.97;;;12.24;100.00
69667;BME280;66534;52.370;4.832;2023-06-05T02:20:42;102374.34;;;12.09;100.00
69667;BME280;66534;52.370;4.832;2023-06-05T02:21:13;102375.03;;;12.15;100.00
69667;BME280;66534;52.370;4.832;2023-06-05T02:21:44;102376.47;;;12.27;100.00
69667;BME280;66534;52.370;4.832;2023-06-05T02:22:15;102381.22;;;12.45;100.00
69667;BME280;66534;52.370;4.832;2023-06-05T02:22:45;102373.53;;;12.39;100.00
69667;BME280;66534;52.370;4.832;2023-06-05T02:23:19;102377.78;;;12.43;100.00
69667;BME280;66534;52.370;4.832;2023-06-05T02:23:50;102379.00;;;12.32;100.00
69667;BME280;66534;52.370;4.832;2023-06-05T02:24:21;102370.28;;;12.30;100.00
69667;BME280;66534;52.370;4.832;2023-06-05T02:24:55;102374.38;;;12.40;100.00
69667;BME280;66534;52.370;4.832;2023-06-05T02:25:26;102371.59;;;12.46;100.00
69667;BME280;66534;52.370;4.832;2023-06-05T02:25:56;102376.09;;;12.41;100.00
69667;BME280;66534;52.370;4.832;2023-06-05T02:26:27;102376.34;;;12.33;100.00
69667;BME280;66534;52.370;4.832;2023-06-05T02:26:58;102376.44;;;12.29;100.00
69667;BME280;66534;52.370;4.832;2023-06-05T02:27:28;102378.78;;;12.39;100.00
69667;BME280;66534;52.370;4.832;2023-06-05T02:27:59;102378.78;;;12.39;100.00
69667;BME280;66534;52.370;4.832;2023-06-05T02:28:29;102378.13;;;12.31;100.00
69667;BME280;66534;52.370;4.832;2023-06-05T02:29:00;102376.44;;;12.29;100.00
69667;BME280;66534;52.370;4.832;2023-06-05T02:29:30;102378.13;;;12.31;100.00
69667;BME280;66534;52.370;4.832;2023-06-05T02:30:03;102375.75;;;12.22;100.00
69667;BME280;66534;52.370;4.832;2023-06-05T02:30:33;102373.00;;;12.27;100.00
69667;BME280;66534;52.370;4.832;2023-06-05T02:31:03;102375.78;;;12.20;100.00
69667;BME280;66534;52.370;4.832;2023-06-05T02:31:34;102375.81;;;12.19;100.00
69667;BME280;66534;52.370;4.832;2023-06-05T02:32:06;102376.47;;;12.27;100.00
69667;BME280;66534;52.370;4.832;2023-06-05T02:32:37;102369.78;;;12.15;100.00
69667;BME280;66534;52.370;4.832;2023-06-05T02:33:11;102375.78;;;12.20;100.00
69667;BME280;66534;52.370;4.832;2023-06-05T02:33:42;102375.44;;;12.33;100.00
69667;BME280;66534;52.370;4.832;2023-06-05T02:34:12;102376.03;;;12.44;100.00
69667;BME280;66534;52.370;4.832;2023-06-05T02:34:42;102368.34;;;12.36;100.00
69667;BME280;66534;52.370;4.832;2023-06-05T02:35:17;102381.50;;;12.36;100.00
69667;BME280;66534;52.370;4.832;2023-06-05T02:35:47;102375.38;;;12.36;100.00
69667;BME280;66534;52.370;4.832;2023-06-05T02:36:18;102381.00;;;12.22;100.00
69667;BME280;66534;52.370;4.832;2023-06-05T02:36:48;102378.91;;;12.35;100.00
69667;BME280;66534;52.370;4.832;2023-06-05T02:37:20;102386.53;;;12.44;100.00
69667;BME280;66534;52.370;4.832;2023-06-05T02:37:52;102381.22;;;12.45;100.00
69667;BME280;66534;52.370;4.832;2023-06-05T02:38:23;102377.53;;;12.53;100.00
69667;BME280;66534;52.370;4.832;2023-06-05T02:38:53;102381.22;;;12.47;100.00
69667;BME280;66534;52.370;4.832;2023-06-05T02:39:24;102382.84;;;12.51;100.00
69667;BME280;66534;52.370;4.832;2023-06-05T02:39:55;102376.19;;;12.69;100.00
69667;BME280;66534;52.370;4.832;2023-06-05T02:40:26;102383.66;;;12.53;100.00
69667;BME280;66534;52.370;4.832;2023-06-05T02:40:56;102378.38;;;12.55;100.00
69667;BME280;66534;52.370;4.832;2023-06-05T02:41:27;102376.53;;;12.57;100.00
69667;BME280;66534;52.370;4.832;2023-06-05T02:41:57;102380.59;;;12.68;100.00
69667;BME280;66534;52.370;4.832;2023-06-05T02:42:27;102378.66;;;12.75;100.00
69667;BME280;66534;52.370;4.832;2023-06-05T02:42:58;102375.69;;;12.56;100.00
69667;BME280;66534;52.370;4.832;2023-06-05T02:43:28;102374.91;;;12.53;100.00
69667;BME280;66534;52.370;4.832;2023-06-05T02:43:59;102377.38;;;12.59;100.00
69667;BME280;66534;52.370;4.832;2023-06-05T02:44:29;102371.84;;;12.68;100.00
69667;BME280;66534;52.370;4.832;2023-06-05T02:45:00;102372.47;;;12.76;100.00
69667;BME280;66534;52.370;4.832;2023-06-05T02:45:30;102372.44;;;12.78;100.00
69667;BME280;66534;52.370;4.832;2023-06-05T02:46:02;102366.84;;;12.88;100.00
69667;BME280;66534;52.370;4.832;2023-06-05T02:46:32;102372.00;;;12.91;100.00
69667;BME280;66534;52.370;4.832;2023-06-05T02:47:02;102366.56;;;12.98;100.00
69667;BME280;66534;52.370;4.832;2023-06-05T02:47:33;102367.00;;;12.84;100.00
69667;BME280;66534;52.370;4.832;2023-06-05T02:48:04;102372.56;;;12.73;100.00